Time;durP1;ratioP1;P1;durP2;ratioP2;P2;SDS_P1;SDS_P2;PMS_P1;PMS_P2;Temp;Humidity;BMP_temperature;BMP_pressure;BME280_temperature;BME280_humidity;BME280_pressure;Samples;Min_cycle;Max_cycle;Signal;HPM_P1;HPM_P2
2022/05/19 00:02:21;;;;;;;19.53;7.83;;;;;;;;;;5029464;28;20438;-60
2022/05/19 00:04:48;;;;;;;20.50;8.03;;;;;;;;;;5031055;28;20939;-60
2022/05/19 00:07:15;;;;;;;14.57;7.57;;;;;;;;;;5030314;28;20924;-61
2022/05/19 00:09:42;;;;;;;20.63;7.93;;;;;;;;;;5031068;28;20431;-60
2022/05/19 00:12:10;;;;;;;16.57;8.17;;;;;;;;;;5031396;28;20434;-60
2022/05/19 00:14:36;;;;;;;19.00;7.73;;;;;;;;;;5030965;28;20793;-60
2022/05/19 00:17:03;;;;;;;17.17;7.57;;;;;;;;;;5013167;28;20977;-60
2022/05/19 00:19:48;;;;;;;19.37;8.10;;;;;;;;;;5031127;28;20406;-60
2022/05/19 00:22:15;;;;;;;19.27;8.87;;;;;;;;;;5031035;28;20459;-60
2022/05/19 00:24:42;;;;;;;18.80;8.40;;;;;;;;;;5030643;28;20571;-60
2022/05/19 00:27:13;;;;;;;14.50;8.30;;;;;;;;;;5030865;28;20432;-61
2022/05/19 00:29:40;;;;;;;12.90;7.47;;;;;;;;;;5029736;28;20442;-60
2022/05/19 00:32:10;;;;;;;13.97;7.73;;;;;;;;;;5030685;28;21019;-61
2022/05/19 00:34:37;;;;;;;18.77;8.10;;;;;;;;;;5031185;28;20790;-60
2022/05/19 00:37:04;;;;;;;18.27;8.30;;;;;;;;;;5030405;28;20465;-60
2022/05/19 00:39:32;;;;;;;14.40;6.97;;;;;;;;;;5030517;28;20460;-60
2022/05/19 00:44:44;;;;;;;14.50;6.53;;;;;;;;;;5050260;28;20476;-61
2022/05/19 00:47:13;;;;;;;15.00;6.57;;;;;;;;;;5050754;28;20818;-61
2022/05/19 00:49:40;;;;;;;14.23;6.10;;;;;;;;;;5031288;28;20457;-60
2022/05/19 00:52:28;;;;;;;11.43;6.37;;;;;;;;;;5030527;28;20401;-60
2022/05/19 00:55:01;;;;;;;10.90;5.33;;;;;;;;;;5030346;28;20515;-60
2022/05/19 00:57:29;;;;;;;13.50;5.73;;;;;;;;;;5029556;28;20442;-60
2022/05/19 01:00:04;;;;;;;12.20;5.87;;;;;;;;;;5012854;28;20453;-60
2022/05/19 01:02:56;;;;;;;13.40;6.37;;;;;;;;;;5030281;28;20429;-60
2022/05/19 01:05:34;;;;;;;16.17;6.20;;;;;;;;;;5029121;28;20842;-60
2022/05/19 01:08:01;;;;;;;12.00;6.53;;;;;;;;;;5029824;28;21194;-60
2022/05/19 01:10:27;;;;;;;13.37;6.00;;;;;;;;;;5030143;28;20435;-60
2022/05/19 01:12:54;;;;;;;12.67;5.80;;;;;;;;;;5030232;28;20431;-60
2022/05/19 01:15:21;;;;;;;10.27;5.67;;;;;;;;;;5029749;28;20436;-61
2022/05/19 01:17:49;;;;;;;11.97;5.30;;;;;;;;;;5029894;28;20422;-60
2022/05/19 01:20:20;;;;;;;10.30;5.13;;;;;;;;;;5012491;28;20437;-60
2022/05/19 01:22:49;;;;;;;14.10;5.33;;;;;;;;;;5027779;28;21110;-60
2022/05/19 01:25:25;;;;;;;11.93;5.50;;;;;;;;;;5030104;28;20444;-60
2022/05/19 01:27:52;;;;;;;9.30;4.97;;;;;;;;;;5012307;28;20438;-60
2022/05/19 01:30:19;;;;;;;10.13;5.17;;;;;;;;;;5029775;28;20442;-60
2022/05/19 01:32:45;;;;;;;14.17;5.90;;;;;;;;;;5029600;28;20458;-60
2022/05/19 01:35:12;;;;;;;12.03;5.73;;;;;;;;;;5029668;28;20435;-61
2022/05/19 01:37:57;;;;;;;12.77;6.23;;;;;;;;;;5025742;28;20423;-60
2022/05/19 01:40:37;;;;;;;11.77;5.63;;;;;;;;;;4992616;28;20439;-60
2022/05/19 01:43:21;;;;;;;15.33;5.30;;;;;;;;;;5017715;28;20506;-60
2022/05/19 01:45:51;;;;;;;10.47;4.93;;;;;;;;;;5013312;28;20463;-60
2022/05/19 01:49:01;;;;;;;9.97;4.70;;;;;;;;;;5011626;28;20477;-60
2022/05/19 01:51:33;;;;;;;11.37;4.43;;;;;;;;;;5006347;28;20439;-60
2022/05/19 01:54:17;;;;;;;8.40;4.50;;;;;;;;;;5015686;28;20966;-60
2022/05/19 01:56:49;;;;;;;7.97;3.87;;;;;;;;;;5029088;28;20817;-60
2022/05/19 01:59:21;;;;;;;7.07;4.00;;;;;;;;;;5029071;28;20823;-60
2022/05/19 02:02:11;;;;;;;10.70;3.43;;;;;;;;;;5011545;28;20471;-60
2022/05/19 02:04:49;;;;;;;8.30;3.60;;;;;;;;;;5010357;28;20914;-60
2022/05/19 02:07:16;;;;;;;5.53;3.60;;;;;;;;;;5011777;28;20452;-60
2022/05/19 02:09:45;;;;;;;8.50;3.63;;;;;;;;;;5027870;28;20418;-60
2022/05/19 02:12:11;;;;;;;7.47;3.10;;;;;;;;;;4997165;28;20453;-61
2022/05/19 02:14:45;;;;;;;5.50;3.00;;;;;;;;;;5009289;28;20424;-60
2022/05/19 02:17:14;;;;;;;7.47;2.90;;;;;;;;;;4990845;28;20516;-60
2022/05/19 02:19:44;;;;;;;7.43;3.27;;;;;;;;;;4991791;28;20439;-60
2022/05/19 02:22:33;;;;;;;6.50;3.00;;;;;;;;;;4994332;28;20416;-60
2022/05/19 02:25:03;;;;;;;7.13;3.40;;;;;;;;;;4991190;28;20981;-60
2022/05/19 02:27:32;;;;;;;7.20;2.97;;;;;;;;;;4991390;28;20803;-60
2022/05/19 02:30:00;;;;;;;8.00;3.43;;;;;;;;;;5009037;28;20432;-60
2022/05/19 02:32:27;;;;;;;8.77;3.83;;;;;;;;;;4991316;28;20439;-60
2022/05/19 02:34:54;;;;;;;6.80;3.40;;;;;;;;;;5009014;28;20443;-60
2022/05/19 02:37:20;;;;;;;7.47;3.83;;;;;;;;;;5008629;28;20427;-60
2022/05/19 02:39:49;;;;;;;6.97;3.80;;;;;;;;;;5008235;28;20463;-60
2022/05/19 02:42:15;;;;;;;13.73;4.90;;;;;;;;;;5014272;28;20445;-60
2022/05/19 02:44:42;;;;;;;12.93;4.43;;;;;;;;;;5029764;28;20869;-60
2022/05/19 02:47:09;;;;;;;10.10;4.10;;;;;;;;;;5028313;28;20423;-59
2022/05/19 02:49:36;;;;;;;9.03;4.30;;;;;;;;;;5028927;28;20527;-59
2022/05/19 02:52:03;;;;;;;9.90;4.60;;;;;;;;;;5027719;28;20423;-60
2022/05/19 02:54:29;;;;;;;11.77;4.80;;;;;;;;;;5028416;28;20796;-60
2022/05/19 02:56:56;;;;;;;9.50;4.23;;;;;;;;;;5028321;28;20436;-60
2022/05/19 02:59:23;;;;;;;8.83;3.93;;;;;;;;;;5027874;28;20909;-60
2022/05/19 03:01:49;;;;;;;6.30;4.07;;;;;;;;;;5015330;28;20450;-60
2022/05/19 03:04:16;;;;;;;9.33;4.40;;;;;;;;;;5008776;28;20496;-61
2022/05/19 03:06:43;;;;;;;7.97;4.10;;;;;;;;;;5007774;28;20967;-60
2022/05/19 03:09:10;;;;;;;7.90;4.27;;;;;;;;;;5008345;28;20547;-60
2022/05/19 03:11:37;;;;;;;5.80;3.50;;;;;;;;;;5015386;28;20811;-60
2022/05/19 03:14:03;;;;;;;5.97;3.40;;;;;;;;;;5027278;28;20431;-60
2022/05/19 03:16:30;;;;;;;7.07;3.77;;;;;;;;;;5022245;28;20473;-59
2022/05/19 03:18:57;;;;;;;8.23;3.60;;;;;;;;;;5017190;28;20423;-61
2022/05/19 03:21:24;;;;;;;8.73;3.27;;;;;;;;;;5029266;28;20426;-60
2022/05/19 03:23:52;;;;;;;7.60;3.70;;;;;;;;;;5031101;28;20887;-60
2022/05/19 03:26:18;;;;;;;5.47;3.40;;;;;;;;;;5032100;28;20435;-60
2022/05/19 03:28:45;;;;;;;6.77;3.40;;;;;;;;;;5032088;28;20440;-60
2022/05/19 03:31:12;;;;;;;8.50;3.40;;;;;;;;;;5015547;28;20426;-60
2022/05/19 03:33:39;;;;;;;9.67;3.10;;;;;;;;;;5010444;28;20443;-60
2022/05/19 03:36:05;;;;;;;3.90;2.67;;;;;;;;;;5020807;28;20437;-60
2022/05/19 03:38:32;;;;;;;5.57;2.40;;;;;;;;;;5031833;28;20504;-60
2022/05/19 03:40:59;;;;;;;3.27;1.93;;;;;;;;;;5030262;28;20455;-60
2022/05/19 03:43:26;;;;;;;1.93;1.27;;;;;;;;;;5044300;28;20785;-60
2022/05/19 03:45:54;;;;;;;3.80;1.53;;;;;;;;;;5034642;28;20949;-63
2022/05/19 03:48:22;;;;;;;3.10;1.40;;;;;;;;;;4993427;28;20200;-60
2022/05/19 03:50:49;;;;;;;5.07;1.40;;;;;;;;;;5013207;28;20208;-60
2022/05/19 03:53:16;;;;;;;6.03;1.50;;;;;;;;;;5031622;28;20180;-60
2022/05/19 03:55:45;;;;;;;3.63;1.40;;;;;;;;;;5031365;28;20198;-59
2022/05/19 03:58:12;;;;;;;3.53;1.30;;;;;;;;;;5013423;28;20214;-59
2022/05/19 04:00:41;;;;;;;4.60;1.40;;;;;;;;;;5013687;28;20192;-60
2022/05/19 04:03:08;;;;;;;1.50;1.20;;;;;;;;;;5013977;28;20239;-59
2022/05/19 04:05:52;;;;;;;8.73;2.90;;;;;;;;;;5031594;28;20682;-60
2022/05/19 04:08:19;;;;;;;4.87;3.00;;;;;;;;;;5031260;28;20993;-60
2022/05/19 04:10:49;;;;;;;4.63;2.13;;;;;;;;;;5029842;28;20195;-60
2022/05/19 04:13:16;;;;;;;4.07;2.20;;;;;;;;;;5031514;28;20275;-60
2022/05/19 04:15:43;;;;;;;3.53;1.67;;;;;;;;;;5030900;28;20623;-59
2022/05/19 04:18:10;;;;;;;4.50;1.50;;;;;;;;;;5030991;28;20195;-60
2022/05/19 04:20:37;;;;;;;7.43;1.60;;;;;;;;;;5016193;28;20194;-60
2022/05/19 04:23:04;;;;;;;7.53;2.10;;;;;;;;;;5023073;28;20205;-60
2022/05/19 04:25:31;;;;;;;7.73;2.70;;;;;;;;;;5025123;28;20288;-59
2022/05/19 04:27:58;;;;;;;5.70;2.37;;;;;;;;;;5023991;28;20916;-60
2022/05/19 04:30:25;;;;;;;8.57;2.17;;;;;;;;;;5025372;28;20191;-59
2022/05/19 04:32:52;;;;;;;6.50;1.60;;;;;;;;;;5013219;28;20199;-59
2022/05/19 04:35:19;;;;;;;3.63;1.60;;;;;;;;;;5023102;28;21072;-60
2022/05/19 04:37:46;;;;;;;5.40;2.00;;;;;;;;;;5029930;28;20201;-60
2022/05/19 04:40:13;;;;;;;5.57;1.60;;;;;;;;;;5023120;28;20224;-60
2022/05/19 04:42:40;;;;;;;5.10;1.60;;;;;;;;;;5034294;28;20885;-59
2022/05/19 04:45:09;;;;;;;4.00;1.40;;;;;;;;;;5030133;28;20322;-59
2022/05/19 04:47:36;;;;;;;4.57;1.60;;;;;;;;;;5013614;28;20233;-59
2022/05/19 04:50:20;;;;;;;5.70;1.50;;;;;;;;;;5029447;28;20183;-59
2022/05/19 04:52:46;;;;;;;4.27;1.40;;;;;;;;;;5030253;28;20191;-60
2022/05/19 04:55:14;;;;;;;9.70;1.37;;;;;;;;;;5030454;28;20241;-60
2022/05/19 04:57:42;;;;;;;13.80;1.97;;;;;;;;;;5030203;28;20192;-60
2022/05/19 05:00:10;;;;;;;3.50;1.50;;;;;;;;;;5029431;28;20557;-60
2022/05/19 05:02:37;;;;;;;2.53;1.20;;;;;;;;;;5024789;28;20192;-60
2022/05/19 05:05:08;;;;;;;5.70;1.77;;;;;;;;;;5027511;28;20219;-60
2022/05/19 05:07:56;;;;;;;6.67;2.37;;;;;;;;;;5009372;28;20187;-60
2022/05/19 05:10:23;;;;;;;4.60;1.60;;;;;;;;;;5029969;28;20241;-60
2022/05/19 05:12:50;;;;;;;5.43;1.47;;;;;;;;;;5029264;28;20602;-60
2022/05/19 05:15:17;;;;;;;4.03;1.70;;;;;;;;;;5030000;28;20215;-60
2022/05/19 05:17:44;;;;;;;3.80;1.30;;;;;;;;;;5029568;28;20190;-60
2022/05/19 05:20:12;;;;;;;3.37;1.30;;;;;;;;;;5030227;28;20562;-59
2022/05/19 05:22:39;;;;;;;5.23;1.37;;;;;;;;;;5015911;28;20261;-60
2022/05/19 05:25:07;;;;;;;3.37;1.50;;;;;;;;;;5028697;28;20207;-60
2022/05/19 05:27:35;;;;;;;4.63;1.60;;;;;;;;;;5029774;28;20195;-60
2022/05/19 05:30:04;;;;;;;5.23;1.43;;;;;;;;;;5027490;28;20282;-60
2022/05/19 05:32:30;;;;;;;11.67;1.83;;;;;;;;;;5029467;28;20265;-62
2022/05/19 05:34:57;;;;;;;6.23;1.57;;;;;;;;;;5029079;28;20219;-68
2022/05/19 05:37:24;;;;;;;4.50;1.50;;;;;;;;;;5027661;28;20203;-71
2022/05/19 05:39:53;;;;;;;6.50;1.33;;;;;;;;;;5026725;28;20220;-66
2022/05/19 05:42:20;;;;;;;3.97;1.20;;;;;;;;;;5029351;28;20194;-66
2022/05/19 05:44:47;;;;;;;3.10;1.40;;;;;;;;;;5029249;28;20203;-66
2022/05/19 05:47:14;;;;;;;4.13;1.40;;;;;;;;;;5029655;28;20194;-65
2022/05/19 05:49:40;;;;;;;5.03;1.60;;;;;;;;;;5029604;28;20202;-65
2022/05/19 05:52:07;;;;;;;5.57;1.30;;;;;;;;;;5044044;28;20187;-65
2022/05/19 05:54:34;;;;;;;3.80;1.20;;;;;;;;;;5029608;28;20191;-65
2022/05/19 05:57:01;;;;;;;4.00;1.40;;;;;;;;;;5021720;28;20196;-65
2022/05/19 05:59:28;;;;;;;4.70;1.40;;;;;;;;;;5024159;28;20226;-67
2022/05/19 06:01:55;;;;;;;2.33;1.20;;;;;;;;;;5022657;28;20322;-65
2022/05/19 06:04:22;;;;;;;4.20;1.30;;;;;;;;;;5023651;28;20309;-66
2022/05/19 06:06:49;;;;;;;2.53;1.40;;;;;;;;;;5022652;28;20678;-67
2022/05/19 06:09:17;;;;;;;3.50;1.30;;;;;;;;;;5023630;28;20247;-65
2022/05/19 06:11:44;;;;;;;4.77;1.60;;;;;;;;;;5023636;28;20188;-66
2022/05/19 06:14:11;;;;;;;5.50;1.47;;;;;;;;;;5023530;28;20199;-65
2022/05/19 06:16:38;;;;;;;6.70;1.83;;;;;;;;;;5023620;28;20293;-66
2022/05/19 06:19:05;;;;;;;5.60;1.57;;;;;;;;;;5005813;28;20238;-64
2022/05/19 06:21:36;;;;;;;5.67;1.70;;;;;;;;;;5023499;28;20714;-64
2022/05/19 06:24:08;;;;;;;2.90;1.20;;;;;;;;;;5021280;28;20199;-65
2022/05/19 06:26:35;;;;;;;4.97;1.50;;;;;;;;;;5021788;28;20807;-66
2022/05/19 06:29:02;;;;;;;8.37;1.73;;;;;;;;;;5022697;28;21085;-65
2022/05/19 06:31:31;;;;;;;6.60;1.53;;;;;;;;;;5022655;28;20757;-67
2022/05/19 06:33:59;;;;;;;4.33;1.30;;;;;;;;;;5021667;28;20247;-65
2022/05/19 06:36:43;;;;;;;5.07;1.60;;;;;;;;;;5021846;28;20178;-64
2022/05/19 06:39:10;;;;;;;7.13;1.70;;;;;;;;;;5023055;28;20752;-65
2022/05/19 06:44:22;;;;;;;2.90;1.40;;;;;;;;;;5028369;28;20210;-62
2022/05/19 06:46:49;;;;;;;5.70;1.50;;;;;;;;;;5028492;28;20209;-63
2022/05/19 06:49:17;;;;;;;7.37;1.97;;;;;;;;;;5031483;28;20191;-64
2022/05/19 06:51:44;;;;;;;5.70;1.50;;;;;;;;;;5031373;28;20249;-65
2022/05/19 06:54:17;;;;;;;4.17;1.43;;;;;;;;;;5010513;28;20184;-66
2022/05/19 06:56:43;;;;;;;4.90;1.63;;;;;;;;;;5028716;28;20190;-64
2022/05/19 06:59:10;;;;;;;8.60;1.43;;;;;;;;;;5030195;28;20191;-66
2022/05/19 07:01:36;;;;;;;8.83;1.70;;;;;;;;;;5029258;28;20191;-66
2022/05/19 07:04:09;;;;;;;5.10;1.50;;;;;;;;;;5035335;28;20293;-66
2022/05/19 07:06:35;;;;;;;9.47;1.70;;;;;;;;;;5011711;28;20341;-66
2022/05/19 07:09:20;;;;;;;6.53;1.73;;;;;;;;;;5029504;28;20187;-63
2022/05/19 07:11:47;;;;;;;3.73;1.63;;;;;;;;;;5025341;28;20186;-64
2022/05/19 07:14:15;;;;;;;6.97;1.60;;;;;;;;;;5031199;28;20211;-64
2022/05/19 07:16:44;;;;;;;3.30;1.20;;;;;;;;;;5031188;28;20193;-64
2022/05/19 07:21:56;;;;;;;7.33;1.77;;;;;;;;;;5031297;28;20217;-65
2022/05/19 07:24:24;;;;;;;8.03;1.80;;;;;;;;;;5036470;28;20190;-65
2022/05/19 07:26:51;;;;;;;3.33;1.50;;;;;;;;;;5029543;28;20589;-65
2022/05/19 07:29:18;;;;;;;2.90;1.50;;;;;;;;;;5027888;28;20191;-63
2022/05/19 07:31:46;;;;;;;6.43;1.80;;;;;;;;;;5028009;28;20195;-64
2022/05/19 07:34:13;;;;;;;9.87;1.73;;;;;;;;;;5034093;28;20198;-64
2022/05/19 07:36:40;;;;;;;7.73;1.70;;;;;;;;;;5025428;28;20848;-65
2022/05/19 07:39:07;;;;;;;2.50;1.33;;;;;;;;;;5027951;28;20234;-62
2022/05/19 07:41:34;;;;;;;4.87;1.57;;;;;;;;;;5027747;28;20693;-64
2022/05/19 07:44:02;;;;;;;5.90;1.87;;;;;;;;;;5029235;28;20600;-64
2022/05/19 07:46:29;;;;;;;3.20;1.50;;;;;;;;;;5010398;28;20632;-64
2022/05/19 07:48:56;;;;;;;5.77;1.50;;;;;;;;;;5029677;28;20260;-64
2022/05/19 07:51:23;;;;;;;3.03;1.50;;;;;;;;;;5010854;28;20207;-64
2022/05/19 07:53:50;;;;;;;3.40;1.30;;;;;;;;;;5026680;28;20187;-66
2022/05/19 07:56:17;;;;;;;5.80;1.80;;;;;;;;;;5027151;28;20192;-64
2022/05/19 07:59:01;;;;;;;7.10;1.57;;;;;;;;;;5028293;28;20616;-64
2022/05/19 08:01:30;;;;;;;5.43;1.50;;;;;;;;;;5028922;28;20186;-65
2022/05/19 08:03:58;;;;;;;5.87;2.00;;;;;;;;;;5028983;28;20972;-63
2022/05/19 08:06:28;;;;;;;3.47;1.53;;;;;;;;;;5027144;28;20235;-66
2022/05/19 08:08:58;;;;;;;4.50;1.73;;;;;;;;;;5016266;28;20216;-64
2022/05/19 08:11:25;;;;;;;5.50;1.60;;;;;;;;;;5028277;28;20215;-64
2022/05/19 08:16:38;;;;;;;8.00;1.60;;;;;;;;;;5030207;28;20210;-66
2022/05/19 08:19:05;;;;;;;6.50;1.80;;;;;;;;;;5032837;28;20203;-64
2022/05/19 08:21:32;;;;;;;5.17;1.63;;;;;;;;;;5033372;28;20205;-64
2022/05/19 08:23:59;;;;;;;3.77;1.70;;;;;;;;;;5033315;28;21023;-65
2022/05/19 08:26:26;;;;;;;7.47;1.87;;;;;;;;;;5032354;28;21004;-65
2022/05/19 08:28:53;;;;;;;4.00;1.80;;;;;;;;;;5033594;28;20823;-65
2022/05/19 08:31:21;;;;;;;4.03;1.40;;;;;;;;;;5012628;28;20203;-65
2022/05/19 08:33:49;;;;;;;4.17;1.77;;;;;;;;;;5035364;28;20653;-63
2022/05/19 08:36:21;;;;;;;3.97;1.60;;;;;;;;;;5031538;28;20590;-64
2022/05/19 08:38:48;;;;;;;8.53;1.80;;;;;;;;;;5026758;28;20234;-62
2022/05/19 08:41:22;;;;;;;5.37;1.63;;;;;;;;;;5025108;28;20199;-64
2022/05/19 08:43:50;;;;;;;3.80;1.63;;;;;;;;;;5014104;28;20731;-65
2022/05/19 08:46:21;;;;;;;5.03;2.10;;;;;;;;;;5027141;28;20245;-65
2022/05/19 08:48:50;;;;;;;4.03;1.37;;;;;;;;;;5023927;28;20613;-65
2022/05/19 08:51:18;;;;;;;7.00;1.90;;;;;;;;;;5023315;28;20203;-63
2022/05/19 08:53:45;;;;;;;4.97;1.73;;;;;;;;;;5022901;28;20245;-62
2022/05/19 08:56:12;;;;;;;5.50;1.87;;;;;;;;;;5023869;28;20196;-64
2022/05/19 08:58:48;;;;;;;6.43;1.90;;;;;;;;;;5024416;28;20200;-64
2022/05/19 09:01:38;;;;;;;5.73;1.50;;;;;;;;;;5024982;28;20195;-62
2022/05/19 09:04:11;;;;;;;6.90;1.80;;;;;;;;;;4978331;28;20295;-64
2022/05/19 09:10:02;;;;;;;4.17;1.70;;;;;;;;;;4962831;28;20236;-67
2022/05/19 09:12:30;;;;;;;6.03;1.73;;;;;;;;;;5023898;28;20196;-65
2022/05/19 09:14:57;;;;;;;3.07;1.60;;;;;;;;;;5008671;28;20184;-63
2022/05/19 09:17:25;;;;;;;6.13;1.77;;;;;;;;;;5023219;28;20928;-64
2022/05/19 09:19:54;;;;;;;4.37;1.80;;;;;;;;;;5022319;28;20199;-63
2022/05/19 09:22:22;;;;;;;4.63;1.53;;;;;;;;;;5024722;28;20187;-64
2022/05/19 09:24:49;;;;;;;6.07;1.80;;;;;;;;;;5022681;28;20540;-64
2022/05/19 09:27:16;;;;;;;3.07;1.67;;;;;;;;;;5023333;28;20191;-65
2022/05/19 09:29:44;;;;;;;5.70;1.90;;;;;;;;;;5023350;28;20201;-62
2022/05/19 09:32:13;;;;;;;3.13;1.83;;;;;;;;;;5023416;28;20196;-64
2022/05/19 09:34:41;;;;;;;5.33;1.93;;;;;;;;;;5023245;28;20191;-66
2022/05/19 09:37:10;;;;;;;5.40;1.77;;;;;;;;;;5022843;28;20334;-64
2022/05/19 09:39:53;;;;;;;4.13;1.73;;;;;;;;;;5022254;28;20309;-63
2022/05/19 09:42:21;;;;;;;6.43;2.23;;;;;;;;;;5021550;28;20199;-64
2022/05/19 09:44:54;;;;;;;5.00;1.60;;;;;;;;;;5021388;28;20248;-62
2022/05/19 09:47:27;;;;;;;6.00;1.83;;;;;;;;;;5004450;28;20278;-64
2022/05/19 09:49:55;;;;;;;4.43;1.77;;;;;;;;;;5023038;28;20246;-64
2022/05/19 09:52:24;;;;;;;3.60;1.70;;;;;;;;;;5023290;28;20196;-64
2022/05/19 09:54:56;;;;;;;4.57;1.90;;;;;;;;;;5021106;28;20273;-64
2022/05/19 09:57:25;;;;;;;3.87;1.80;;;;;;;;;;5023719;28;20680;-64
2022/05/19 09:59:53;;;;;;;5.30;1.90;;;;;;;;;;5023978;28;20257;-64
2022/05/19 10:02:26;;;;;;;2.67;1.90;;;;;;;;;;5006035;28;20204;-63
2022/05/19 10:04:58;;;;;;;6.93;2.10;;;;;;;;;;5021952;28;20199;-64
2022/05/19 10:07:30;;;;;;;4.47;2.10;;;;;;;;;;5022250;28;20195;-64
2022/05/19 10:09:57;;;;;;;2.20;1.80;;;;;;;;;;4996234;28;20775;-62
2022/05/19 10:12:25;;;;;;;3.07;1.63;;;;;;;;;;5022874;28;20188;-64
2022/05/19 10:15:03;;;;;;;4.13;1.83;;;;;;;;;;5021554;28;20675;-63
2022/05/19 10:17:56;;;;;;;4.93;1.90;;;;;;;;;;5022702;28;20194;-64
2022/05/19 10:20:27;;;;;;;3.53;1.73;;;;;;;;;;5019407;28;20222;-64
2022/05/19 10:23:16;;;;;;;6.30;2.20;;;;;;;;;;5021953;28;20187;-65
2022/05/19 10:25:43;;;;;;;4.70;2.10;;;;;;;;;;5021308;28;20299;-67
2022/05/19 10:31:05;;;;;;;6.33;1.87;;;;;;;;;;5021725;28;20199;-63
2022/05/19 10:33:47;;;;;;;4.97;2.00;;;;;;;;;;5021542;28;20197;-63
2022/05/19 10:36:17;;;;;;;9.63;2.10;;;;;;;;;;5023136;28;20199;-64
2022/05/19 10:38:58;;;;;;;11.20;2.10;;;;;;;;;;5023160;28;20231;-63
2022/05/19 10:41:34;;;;;;;6.20;1.93;;;;;;;;;;5014552;28;20288;-62
2022/05/19 10:44:11;;;;;;;5.67;1.83;;;;;;;;;;5028356;28;20198;-64
2022/05/19 10:46:47;;;;;;;4.57;1.90;;;;;;;;;;5026046;28;20261;-63
2022/05/19 10:49:14;;;;;;;3.20;1.83;;;;;;;;;;5031220;28;20203;-63
2022/05/19 10:51:56;;;;;;;6.67;1.87;;;;;;;;;;5025819;28;20194;-63
2022/05/19 10:54:41;;;;;;;4.10;1.83;;;;;;;;;;5025902;28;20683;-63
2022/05/19 10:57:11;;;;;;;4.00;1.97;;;;;;;;;;5028494;28;20189;-64
2022/05/19 11:00:18;;;;;;;4.10;2.00;;;;;;;;;;5024629;28;20229;-63
2022/05/19 11:03:00;;;;;;;6.43;2.17;;;;;;;;;;4985365;28;20188;-65
2022/05/19 11:05:27;;;;;;;7.57;2.17;;;;;;;;;;5003867;28;20313;-63
2022/05/19 11:08:13;;;;;;;5.67;2.10;;;;;;;;;;5039507;28;20298;-62
2022/05/19 11:10:49;;;;;;;3.87;1.97;;;;;;;;;;5048206;28;20672;-62
2022/05/19 11:13:25;;;;;;;3.57;2.10;;;;;;;;;;5048678;28;20601;-62
2022/05/19 11:16:11;;;;;;;4.07;1.97;;;;;;;;;;5048019;28;20225;-62
2022/05/19 11:18:39;;;;;;;3.73;1.70;;;;;;;;;;5047981;28;20191;-62
2022/05/19 11:21:06;;;;;;;4.33;2.03;;;;;;;;;;5029964;28;20197;-62
2022/05/19 11:23:48;;;;;;;4.53;2.30;;;;;;;;;;5047926;28;20194;-62
2022/05/19 11:26:27;;;;;;;8.70;2.10;;;;;;;;;;5047730;28;20748;-62
2022/05/19 11:29:06;;;;;;;4.13;1.87;;;;;;;;;;5047777;28;20668;-62
2022/05/19 11:31:35;;;;;;;6.83;2.10;;;;;;;;;;5048097;28;20187;-62
2022/05/19 11:34:04;;;;;;;5.40;2.17;;;;;;;;;;5047969;28;20202;-63
2022/05/19 11:36:34;;;;;;;5.00;2.10;;;;;;;;;;5029935;28;20191;-63
2022/05/19 11:39:07;;;;;;;4.60;1.90;;;;;;;;;;5047422;28;20689;-64
2022/05/19 11:41:35;;;;;;;4.10;1.93;;;;;;;;;;5030553;28;20531;-63
2022/05/19 11:44:07;;;;;;;6.80;2.30;;;;;;;;;;5016688;28;20219;-63
2022/05/19 11:47:00;;;;;;;4.30;2.13;;;;;;;;;;5031889;28;20207;-63
2022/05/19 11:55:45;;;;;;;2.27;1.87;;;;;;;;;;5024200;28;20285;-66
2022/05/19 11:58:20;;;;;;;2.63;2.10;;;;;;;;;;5038045;28;20217;-65
2022/05/19 12:01:08;;;;;;;3.30;2.10;;;;;;;;;;5033978;28;21029;-65
2022/05/19 12:03:38;;;;;;;3.10;1.63;;;;;;;;;;5032080;28;20229;-65
2022/05/19 12:06:09;;;;;;;5.47;1.90;;;;;;;;;;5031380;28;20233;-65
2022/05/19 12:08:37;;;;;;;5.57;2.20;;;;;;;;;;5035051;28;20182;-65
2022/05/19 12:11:14;;;;;;;5.50;1.77;;;;;;;;;;5013938;28;20325;-63
2022/05/19 12:13:45;;;;;;;3.13;1.90;;;;;;;;;;5033225;28;20191;-65
2022/05/19 12:16:13;;;;;;;3.73;2.30;;;;;;;;;;5030575;28;20198;-64
2022/05/19 12:19:00;;;;;;;6.53;2.00;;;;;;;;;;5031704;28;20187;-64
2022/05/19 12:21:31;;;;;;;3.17;1.70;;;;;;;;;;5025857;28;20199;-64
2022/05/19 12:24:03;;;;;;;7.07;2.20;;;;;;;;;;5029484;28;20196;-65
2022/05/19 12:26:31;;;;;;;3.87;1.83;;;;;;;;;;5007845;28;20219;-64
2022/05/19 12:29:01;;;;;;;4.53;2.03;;;;;;;;;;5014607;28;20314;-66
2022/05/19 12:34:19;;;;;;;6.87;1.90;;;;;;;;;;5031148;28;21025;-64
2022/05/19 12:37:29;;;;;;;4.33;1.67;;;;;;;;;;5034508;28;20178;-64
2022/05/19 12:40:11;;;;;;;3.53;1.73;;;;;;;;;;5013034;28;20226;-64
2022/05/19 12:42:40;;;;;;;5.90;2.27;;;;;;;;;;5034692;28;20977;-62
2022/05/19 12:45:25;;;;;;;4.47;2.20;;;;;;;;;;5028170;28;20253;-63
2022/05/19 12:47:56;;;;;;;3.70;2.23;;;;;;;;;;5010003;28;20211;-62
2022/05/19 12:50:43;;;;;;;4.17;1.90;;;;;;;;;;5033291;28;20195;-62
2022/05/19 12:53:23;;;;;;;2.50;1.90;;;;;;;;;;5029996;28;20665;-63
2022/05/19 12:55:51;;;;;;;7.23;2.30;;;;;;;;;;5029066;28;20199;-62
2022/05/19 12:58:34;;;;;;;4.47;2.13;;;;;;;;;;5020428;28;20881;-64
2022/05/19 13:01:20;;;;;;;5.30;2.10;;;;;;;;;;5011476;28;20707;-64
2022/05/19 13:03:50;;;;;;;5.70;2.20;;;;;;;;;;5029080;28;20598;-64
2022/05/19 13:06:17;;;;;;;4.93;2.37;;;;;;;;;;5032809;28;20207;-65
2022/05/19 13:08:49;;;;;;;4.63;2.00;;;;;;;;;;5012662;28;20209;-63
2022/05/19 13:11:18;;;;;;;6.20;2.10;;;;;;;;;;5009072;28;20614;-66
2022/05/19 13:13:50;;;;;;;4.43;2.20;;;;;;;;;;5027712;28;20666;-64
2022/05/19 13:16:18;;;;;;;3.30;1.90;;;;;;;;;;5016719;28;20205;-65
2022/05/19 13:18:50;;;;;;;3.33;2.10;;;;;;;;;;5031606;28;20193;-64
2022/05/19 13:21:20;;;;;;;4.47;2.00;;;;;;;;;;5033402;28;20198;-64
2022/05/19 13:23:48;;;;;;;4.37;2.33;;;;;;;;;;5027999;28;20705;-63
2022/05/19 13:26:27;;;;;;;3.13;1.90;;;;;;;;;;5028040;28;20547;-65
2022/05/19 13:31:48;;;;;;;6.60;2.40;;;;;;;;;;5030258;28;20613;-65
2022/05/19 13:34:16;;;;;;;7.60;2.17;;;;;;;;;;5030740;28;20190;-65
2022/05/19 13:36:42;;;;;;;4.63;2.00;;;;;;;;;;5010668;28;20198;-66
2022/05/19 13:39:27;;;;;;;7.40;2.17;;;;;;;;;;5034422;28;20222;-66
2022/05/19 13:41:56;;;;;;;6.57;2.20;;;;;;;;;;5038228;28;20196;-66
2022/05/19 13:44:27;;;;;;;4.03;2.00;;;;;;;;;;5036243;28;20230;-66
2022/05/19 13:46:54;;;;;;;5.57;1.90;;;;;;;;;;5017392;28;20218;-66
2022/05/19 13:49:21;;;;;;;4.93;2.00;;;;;;;;;;5040055;28;20574;-65
2022/05/19 13:51:48;;;;;;;5.90;2.00;;;;;;;;;;5017980;28;20255;-65
2022/05/19 13:54:30;;;;;;;2.67;1.90;;;;;;;;;;5016359;28;20197;-65
2022/05/19 13:57:01;;;;;;;5.57;2.17;;;;;;;;;;5027329;28;20242;-65
2022/05/19 13:59:31;;;;;;;3.70;1.83;;;;;;;;;;5037668;28;20187;-68
2022/05/19 14:02:07;;;;;;;5.00;2.13;;;;;;;;;;5037716;28;20733;-67
2022/05/19 14:04:34;;;;;;;2.43;1.80;;;;;;;;;;5041910;28;20268;-69
2022/05/19 14:07:05;;;;;;;4.27;2.10;;;;;;;;;;5012748;28;20304;-65
2022/05/19 14:09:48;;;;;;;6.30;2.00;;;;;;;;;;5015327;28;20225;-65
2022/05/19 14:12:23;;;;;;;8.90;2.30;;;;;;;;;;5009871;28;20199;-66
2022/05/19 14:14:56;;;;;;;8.27;2.10;;;;;;;;;;5038000;28;20282;-64
2022/05/19 14:17:43;;;;;;;8.40;2.03;;;;;;;;;;5037534;28;20187;-67
2022/05/19 14:20:19;;;;;;;7.43;2.20;;;;;;;;;;5012998;28;20199;-68
2022/05/19 14:22:50;;;;;;;4.57;2.33;;;;;;;;;;5027247;28;20187;-68
2022/05/19 14:25:17;;;;;;;3.67;2.17;;;;;;;;;;5036443;28;20621;-69
2022/05/19 14:27:44;;;;;;;3.00;2.33;;;;;;;;;;5016195;28;20234;-69
2022/05/19 14:30:17;;;;;;;5.10;2.00;;;;;;;;;;5039900;28;20211;-68
2022/05/19 14:32:50;;;;;;;5.23;2.13;;;;;;;;;;5014411;28;20203;-68
2022/05/19 14:35:19;;;;;;;6.20;2.03;;;;;;;;;;5039810;28;20199;-69
2022/05/19 14:37:53;;;;;;;5.93;2.30;;;;;;;;;;5012004;28;20196;-68
2022/05/19 14:43:24;;;;;;;5.10;2.10;;;;;;;;;;5003825;28;20206;-67
2022/05/19 14:45:52;;;;;;;5.20;1.97;;;;;;;;;;5003113;28;20207;-70
2022/05/19 14:48:36;;;;;;;3.63;1.80;;;;;;;;;;5003229;28;20215;-68
2022/05/19 14:51:03;;;;;;;8.13;2.30;;;;;;;;;;5000574;28;20200;-67
2022/05/19 14:53:32;;;;;;;2.43;1.70;;;;;;;;;;5001157;28;20206;-68
2022/05/19 14:56:05;;;;;;;6.17;2.10;;;;;;;;;;4979797;28;20192;-68
2022/05/19 14:58:53;;;;;;;5.00;1.87;;;;;;;;;;5000077;28;20238;-67
2022/05/19 15:01:20;;;;;;;3.67;1.90;;;;;;;;;;4994467;28;21074;-67
2022/05/19 15:04:04;;;;;;;3.77;2.00;;;;;;;;;;4986599;28;20969;-69
2022/05/19 15:06:31;;;;;;;4.20;1.77;;;;;;;;;;5000939;28;20223;-69
2022/05/19 15:08:58;;;;;;;7.83;2.27;;;;;;;;;;5002019;28;20242;-68
2022/05/19 15:11:27;;;;;;;6.33;2.00;;;;;;;;;;5001227;28;20864;-69
2022/05/19 15:13:54;;;;;;;5.67;2.00;;;;;;;;;;4985158;28;20203;-68
2022/05/19 15:16:21;;;;;;;3.23;1.63;;;;;;;;;;5001292;28;20208;-68
2022/05/19 15:18:48;;;;;;;4.60;1.73;;;;;;;;;;4996886;28;20263;-68
2022/05/19 15:21:16;;;;;;;5.70;2.00;;;;;;;;;;5002698;28;20656;-70
2022/05/19 15:23:43;;;;;;;3.73;1.77;;;;;;;;;;4997189;28;20239;-68
2022/05/19 15:26:10;;;;;;;3.33;1.80;;;;;;;;;;4995220;28;20207;-69
2022/05/19 15:28:39;;;;;;;6.10;2.10;;;;;;;;;;4986267;28;20180;-68
2022/05/19 15:31:06;;;;;;;3.53;1.80;;;;;;;;;;5002363;28;20868;-69
2022/05/19 15:33:33;;;;;;;4.03;1.83;;;;;;;;;;5001673;28;20208;-68
2022/05/19 15:36:00;;;;;;;4.47;1.77;;;;;;;;;;5001668;28;20238;-68